createdAt,value
2018-06-14T00:00:37.283Z,55.70
2018-06-14T00:03:12.492Z,55.70
2018-06-14T00:05:47.532Z,55.70
2018-06-14T00:08:22.608Z,55.70
2018-06-14T00:10:59.152Z,55.70
2018-06-14T00:13:34.111Z,55.70
2018-06-14T00:16:09.063Z,55.80
2018-06-14T00:18:44.184Z,55.80
2018-06-14T00:21:19.248Z,55.80
2018-06-14T00:23:54.351Z,55.80
2018-06-14T00:26:29.300Z,55.90
2018-06-14T00:29:04.479Z,55.80
2018-06-14T00:31:39.540Z,55.80
2018-06-14T00:34:14.582Z,55.80
2018-06-14T00:36:49.504Z,55.90
2018-06-14T00:39:24.552Z,55.90
2018-06-14T00:42:00.427Z,55.90
2018-06-14T00:44:35.331Z,55.90
2018-06-14T00:47:10.373Z,55.90
2018-06-14T00:49:45.412Z,56.00
2018-06-14T00:52:20.504Z,56.00
2018-06-14T00:54:55.555Z,56.00
2018-06-14T00:57:31.676Z,56.00
2018-06-14T01:00:06.603Z,56.00
2018-06-14T01:02:41.531Z,56.00
2018-06-14T01:05:16.563Z,56.00
2018-06-14T01:07:51.604Z,56.00
2018-06-14T01:10:26.543Z,56.00
2018-06-14T01:13:01.471Z,56.00
2018-06-14T01:15:36.549Z,56.10
2018-06-14T01:18:11.625Z,56.10
2018-06-14T01:20:46.596Z,56.10
2018-06-14T01:23:21.532Z,56.10
2018-06-14T01:25:56.564Z,56.10
2018-06-14T01:28:31.615Z,56.10
2018-06-14T01:31:06.664Z,56.20
2018-06-14T01:33:41.591Z,56.20
2018-06-14T01:36:16.501Z,56.20
2018-06-14T01:38:51.537Z,56.20
2018-06-14T01:41:26.446Z,56.20
2018-06-14T01:44:01.502Z,56.20
2018-06-14T01:46:36.509Z,56.20
2018-06-14T01:49:11.544Z,56.20
2018-06-14T01:51:46.459Z,56.20
2018-06-14T01:54:21.376Z,56.30
2018-06-14T01:56:56.410Z,56.30
2018-06-14T01:59:31.468Z,56.30
2018-06-14T02:02:06.363Z,56.30
2018-06-14T02:04:41.456Z,56.30
2018-06-14T02:07:16.675Z,56.30
2018-06-14T02:09:51.723Z,56.30
2018-06-14T02:12:26.761Z,56.30
2018-06-14T02:15:02.080Z,56.30
2018-06-14T02:17:36.995Z,56.30
2018-06-14T02:20:11.920Z,56.40
2018-06-14T02:22:46.944Z,56.30
2018-06-14T02:25:22.004Z,56.30
2018-06-14T02:27:57.038Z,56.40
2018-06-14T02:30:32.048Z,56.50
2018-06-14T02:33:07.076Z,56.60
2018-06-14T02:35:42.124Z,56.50
2018-06-14T02:38:19.430Z,56.50
2018-06-14T02:40:54.569Z,56.60
2018-06-14T02:43:29.486Z,56.20
2018-06-14T02:46:04.705Z,56.80
2018-06-14T02:48:39.621Z,56.70
2018-06-14T02:51:14.668Z,57.00
2018-06-14T02:53:49.703Z,56.90
2018-06-14T02:56:24.628Z,56.60
2018-06-14T02:58:59.564Z,57.30
2018-06-14T03:01:34.653Z,54.10
2018-06-14T03:04:09.588Z,57.80
2018-06-14T03:06:44.649Z,58.00
2018-06-14T03:09:19.675Z,57.70
2018-06-14T03:11:54.596Z,57.30
2018-06-14T03:14:29.655Z,57.10
2018-06-14T03:17:04.600Z,56.90
2018-06-14T03:19:39.532Z,56.90
2018-06-14T03:22:14.624Z,57.10
2018-06-14T03:24:49.827Z,57.30
2018-06-14T03:27:24.892Z,56.80
2018-06-14T03:29:59.936Z,57.40
2018-06-14T03:32:34.869Z,58.50
2018-06-14T03:35:09.941Z,59.60
2018-06-14T03:37:44.979Z,60.10
2018-06-14T03:40:19.911Z,59.00
2018-06-14T03:42:54.968Z,58.40
2018-06-14T03:45:30.451Z,59.50
2018-06-14T03:48:05.384Z,56.70
2018-06-14T03:50:41.412Z,56.60
2018-06-14T03:53:16.452Z,70.40
2018-06-14T03:55:51.500Z,76.10
2018-06-14T03:58:26.467Z,79.40
2018-06-14T04:01:01.449Z,82.70
2018-06-14T04:03:36.494Z,80.90
2018-06-14T04:06:11.524Z,81.30
2018-06-14T04:08:46.540Z,83.70
2018-06-14T04:11:21.636Z,84.10
2018-06-14T04:13:56.683Z,84.90
2018-06-14T04:16:31.740Z,86.10
2018-06-14T04:19:07.275Z,86.80
2018-06-14T04:21:42.360Z,85.70
2018-06-14T04:24:17.303Z,87.50
2018-06-14T04:26:52.351Z,86.00
2018-06-14T04:29:27.280Z,85.50
2018-06-14T04:32:02.337Z,83.20
2018-06-14T04:34:37.264Z,80.50
2018-06-14T04:37:12.300Z,79.80
2018-06-14T04:39:48.005Z,78.90
2018-06-14T04:42:22.940Z,77.50
2018-06-14T04:44:57.984Z,78.10
2018-06-14T04:47:32.900Z,76.10
2018-06-14T04:50:07.959Z,77.20
2018-06-14T04:52:42.888Z,77.30
2018-06-14T04:55:17.936Z,75.10
2018-06-14T04:57:52.990Z,74.20
2018-06-14T05:00:28.020Z,70.30
2018-06-14T05:03:03.137Z,67.90
2018-06-14T05:05:38.200Z,68.10
2018-06-14T05:08:17.640Z,68.90
2018-06-14T05:10:53.576Z,67.70
2018-06-14T05:13:28.612Z,69.40
2018-06-14T05:16:03.773Z,69.90
2018-06-14T05:18:38.693Z,69.80
2018-06-14T05:21:13.600Z,72.10
2018-06-14T05:23:48.694Z,73.20
2018-06-14T05:26:23.728Z,72.90
2018-06-14T05:28:59.350Z,73.70
2018-06-14T05:31:34.280Z,75.00
2018-06-14T05:34:09.205Z,75.70
2018-06-14T05:36:44.284Z,76.00
2018-06-14T05:39:19.404Z,76.30
2018-06-14T05:41:54.585Z,76.00
2018-06-14T05:44:29.651Z,76.20
2018-06-14T05:47:04.704Z,76.00
2018-06-14T05:49:39.827Z,75.70
2018-06-14T05:52:15.029Z,76.60
2018-06-14T05:54:50.037Z,75.10
2018-06-14T05:57:25.225Z,74.50
2018-06-14T06:00:00.307Z,74.60
2018-06-14T06:02:35.444Z,73.50
2018-06-14T06:05:10.597Z,75.50
2018-06-14T06:07:45.773Z,75.30
2018-06-14T06:10:20.737Z,75.00
2018-06-14T06:12:55.736Z,74.70
2018-06-14T06:15:30.775Z,74.10
2018-06-14T06:18:05.924Z,74.20
2018-06-14T06:20:41.055Z,73.70
2018-06-14T06:23:16.096Z,72.40
2018-06-14T06:25:51.286Z,73.50
2018-06-14T06:28:26.416Z,73.30
2018-06-14T06:31:01.525Z,74.00
2018-06-14T06:33:36.436Z,75.60
2018-06-14T06:36:11.576Z,75.00
2018-06-14T06:38:46.682Z,75.10
2018-06-14T06:41:21.708Z,74.40
2018-06-14T06:43:56.656Z,72.90
2018-06-14T06:46:31.669Z,71.10
2018-06-14T06:49:06.588Z,72.00
2018-06-14T06:51:41.652Z,70.20
2018-06-14T06:54:16.564Z,70.30
2018-06-14T06:56:51.644Z,70.80
2018-06-14T06:59:26.764Z,70.50
2018-06-14T07:02:01.885Z,69.20
2018-06-14T07:04:36.992Z,70.60
2018-06-14T07:07:12.080Z,69.50
2018-06-14T07:09:47.191Z,70.40
2018-06-14T07:12:22.248Z,70.70
2018-06-14T07:14:57.312Z,69.20
2018-06-14T07:17:32.347Z,68.40
2018-06-14T07:20:07.276Z,68.20
2018-06-14T07:22:42.311Z,68.30
2018-06-14T07:25:17.244Z,68.50
2018-06-14T07:27:52.279Z,67.90
2018-06-14T07:30:27.387Z,66.30
2018-06-14T07:33:02.560Z,66.70
2018-06-14T07:35:37.648Z,65.60
2018-06-14T07:38:12.635Z,64.60
2018-06-14T07:40:47.531Z,65.10
2018-06-14T07:43:22.597Z,65.00
2018-06-14T07:45:57.655Z,64.00
2018-06-14T07:48:32.605Z,64.20
2018-06-14T07:51:07.595Z,64.10
2018-06-14T07:53:42.512Z,64.10
2018-06-14T07:56:17.580Z,63.10
2018-06-14T07:58:52.536Z,62.20
2018-06-14T08:01:27.593Z,61.60
2018-06-14T08:04:02.700Z,59.80
2018-06-14T08:06:38.180Z,58.80
2018-06-14T08:09:13.244Z,56.70
2018-06-14T08:11:48.156Z,56.10
2018-06-14T08:14:23.192Z,55.60
2018-06-14T08:16:58.139Z,54.70
2018-06-14T08:19:33.172Z,54.00
2018-06-14T08:22:08.100Z,54.20
2018-06-14T08:24:43.031Z,53.60
2018-06-14T08:27:18.004Z,52.50
2018-06-14T08:29:52.934Z,52.50
2018-06-14T08:32:27.861Z,51.80
2018-06-14T08:35:02.824Z,52.00
2018-06-14T08:37:37.774Z,51.40
2018-06-14T08:40:12.797Z,51.70
2018-06-14T08:42:47.843Z,51.20
2018-06-14T08:45:22.940Z,49.00
2018-06-14T08:47:57.859Z,50.60
2018-06-14T08:50:33.015Z,49.60
2018-06-14T08:53:07.948Z,48.80
2018-06-14T08:55:43.010Z,49.50
2018-06-14T09:01:27.887Z,48.30
2018-06-14T09:04:02.953Z,49.90
2018-06-14T09:06:38.052Z,48.70
2018-06-14T09:09:13.204Z,47.60
2018-06-14T09:11:48.200Z,47.40
2018-06-14T09:14:23.361Z,46.70
2018-06-14T09:16:58.934Z,47.60
2018-06-14T09:19:33.961Z,47.80
2018-06-14T09:22:09.092Z,47.80
2018-06-14T09:24:44.088Z,47.70
2018-06-14T09:27:19.037Z,47.30
2018-06-14T09:29:54.043Z,49.10
2018-06-14T09:32:29.056Z,47.80
2018-06-14T09:35:04.114Z,47.70
2018-06-14T09:37:39.048Z,47.60
2018-06-14T09:40:14.080Z,47.80
2018-06-14T09:42:49.208Z,46.80
2018-06-14T09:45:24.200Z,47.50
2018-06-14T09:47:59.228Z,49.80
2018-06-14T09:50:34.259Z,48.30
2018-06-14T09:53:09.352Z,46.40
2018-06-14T09:55:44.419Z,47.70
2018-06-14T09:58:19.471Z,49.50
2018-06-14T10:00:54.393Z,49.00
2018-06-14T10:03:29.423Z,49.10
2018-06-14T10:06:04.527Z,50.20
2018-06-14T10:08:39.564Z,49.60
2018-06-14T10:11:14.626Z,49.40
2018-06-14T10:13:49.535Z,48.50
2018-06-14T10:16:24.795Z,47.00
2018-06-14T10:18:59.708Z,49.50
2018-06-14T10:21:34.732Z,48.90
2018-06-14T10:24:09.863Z,49.50
2018-06-14T10:26:44.820Z,49.00
2018-06-14T10:29:20.031Z,49.10
2018-06-14T10:31:55.064Z,47.80
2018-06-14T10:34:30.162Z,48.00
2018-06-14T10:37:05.152Z,49.40
2018-06-14T10:39:40.243Z,49.50
2018-06-14T10:42:15.441Z,48.30
2018-06-14T10:44:50.383Z,48.90
2018-06-14T10:47:25.448Z,49.60
2018-06-14T10:50:00.898Z,49.30
2018-06-14T10:52:35.892Z,46.50
2018-06-14T10:55:10.908Z,46.50
2018-06-14T10:57:46.052Z,46.70
2018-06-14T11:00:21.132Z,47.30
2018-06-14T11:02:56.048Z,48.00
2018-06-14T11:05:31.128Z,48.10
2018-06-14T11:08:06.064Z,47.30
2018-06-14T11:10:41.100Z,47.40
2018-06-14T11:13:16.098Z,48.10
2018-06-14T11:15:51.053Z,46.20
2018-06-14T11:18:26.108Z,45.70
2018-06-14T11:21:01.018Z,46.30
2018-06-14T11:23:36.068Z,46.60
2018-06-14T11:26:11.100Z,46.70
2018-06-14T11:28:46.160Z,45.50
2018-06-14T11:31:21.075Z,45.90
2018-06-14T11:33:56.123Z,46.70
2018-06-14T11:36:31.552Z,46.10
2018-06-14T11:39:07.308Z,46.10
2018-06-14T11:41:42.234Z,47.00
2018-06-14T11:44:17.292Z,46.60
2018-06-14T11:46:55.374Z,46.40
2018-06-14T11:49:30.412Z,45.40
2018-06-14T11:52:05.447Z,45.70
2018-06-14T11:54:40.366Z,46.00
2018-06-14T11:57:15.410Z,46.90
2018-06-14T11:59:51.716Z,47.80
2018-06-14T12:02:26.800Z,47.40
2018-06-14T12:05:01.873Z,47.60
2018-06-14T12:07:36.915Z,47.00
2018-06-14T12:10:11.836Z,47.10
2018-06-14T12:12:46.764Z,47.00
2018-06-14T12:15:21.836Z,47.10
2018-06-14T12:17:56.905Z,48.00
2018-06-14T12:20:31.819Z,47.60
2018-06-14T12:23:06.872Z,47.40
2018-06-14T12:25:41.808Z,47.70
2018-06-14T12:28:16.839Z,49.50
2018-06-14T12:30:51.952Z,49.40
2018-06-14T12:33:27.024Z,49.50
2018-06-14T12:36:02.098Z,48.90
2018-06-14T12:38:37.064Z,48.30
2018-06-14T12:41:11.964Z,47.20
2018-06-14T12:43:47.012Z,48.70
2018-06-14T12:46:22.064Z,48.40
2018-06-14T12:48:57.110Z,48.50
2018-06-14T12:51:32.104Z,48.60
2018-06-14T12:54:07.028Z,48.90
2018-06-14T12:56:42.119Z,49.40
2018-06-14T12:59:17.174Z,48.70
2018-06-14T13:01:52.235Z,49.20
2018-06-14T13:04:27.304Z,48.00
2018-06-14T13:07:02.234Z,48.00
2018-06-14T13:09:37.156Z,48.20
2018-06-14T13:12:12.218Z,49.00
2018-06-14T13:14:47.282Z,48.20
2018-06-14T13:17:22.372Z,47.60
2018-06-14T13:19:57.423Z,48.40
2018-06-14T13:22:32.468Z,47.70
2018-06-14T13:25:07.525Z,48.60
2018-06-14T13:27:42.628Z,48.60
2018-06-14T13:30:17.675Z,48.10
2018-06-14T13:32:53.368Z,47.90
2018-06-14T13:35:28.410Z,47.60
2018-06-14T13:38:03.529Z,47.60
2018-06-14T13:40:38.637Z,47.20
2018-06-14T13:43:13.612Z,48.00
2018-06-14T13:45:48.694Z,48.00
2018-06-14T13:48:23.763Z,48.20
2018-06-14T13:50:58.802Z,47.50
2018-06-14T13:53:33.724Z,48.50
2018-06-14T13:56:08.784Z,47.20
2018-06-14T13:58:43.698Z,48.70
2018-06-14T14:01:18.752Z,48.50
2018-06-14T14:03:53.968Z,48.10
2018-06-14T14:06:29.212Z,49.10
2018-06-14T14:09:06.308Z,49.40
2018-06-14T14:11:41.721Z,49.10
2018-06-14T14:14:16.678Z,50.70
2018-06-14T14:16:51.736Z,53.10
2018-06-14T14:19:26.703Z,54.00
2018-06-14T14:22:01.607Z,54.80
2018-06-14T14:24:36.545Z,54.50
2018-06-14T14:27:11.614Z,54.10
2018-06-14T14:29:46.672Z,55.20
2018-06-14T14:32:21.711Z,54.30
2018-06-14T14:34:56.636Z,55.90
2018-06-14T14:37:31.688Z,57.30
2018-06-14T14:40:06.604Z,56.30
2018-06-14T14:42:41.664Z,56.80
2018-06-14T14:45:16.564Z,56.40
2018-06-14T14:47:51.609Z,57.50
2018-06-14T14:50:26.523Z,57.30
2018-06-14T14:53:01.605Z,58.60
2018-06-14T14:55:36.641Z,61.80
2018-06-14T14:58:11.575Z,61.00
2018-06-14T15:00:46.616Z,61.40
2018-06-14T15:03:21.697Z,60.90
2018-06-14T15:05:56.596Z,62.60
2018-06-14T15:08:31.549Z,64.10
2018-06-14T15:11:06.456Z,66.50
2018-06-14T15:13:41.513Z,66.70
2018-06-14T15:16:16.579Z,67.50
2018-06-14T15:18:51.533Z,67.40
2018-06-14T15:21:26.629Z,68.80
2018-06-14T15:24:01.706Z,68.90
2018-06-14T15:26:36.633Z,68.90
2018-06-14T15:29:11.672Z,72.40
2018-06-14T15:31:46.728Z,72.70
2018-06-14T15:34:21.666Z,74.30
2018-06-14T15:36:56.743Z,74.90
2018-06-14T15:39:31.816Z,77.20
2018-06-14T15:42:06.866Z,77.50
2018-06-14T15:44:41.804Z,79.90
2018-06-14T15:47:16.759Z,76.50
2018-06-14T15:49:51.823Z,77.60
2018-06-14T15:52:26.756Z,79.00
2018-06-14T15:55:13.124Z,78.10
2018-06-14T15:57:48.168Z,81.10
2018-06-14T16:00:23.229Z,81.90
2018-06-14T16:02:58.290Z,81.90
2018-06-14T16:05:33.425Z,83.80
2018-06-14T16:08:08.427Z,82.30
2018-06-14T16:10:43.559Z,82.80
2018-06-14T16:13:18.997Z,84.80
2018-06-14T16:15:54.137Z,82.60
2018-06-14T16:18:29.191Z,83.80
2018-06-14T16:21:04.116Z,86.70
2018-06-14T16:23:39.160Z,87.00
2018-06-14T16:26:14.152Z,85.60
2018-06-14T16:28:49.267Z,87.30
2018-06-14T16:31:24.329Z,86.00
2018-06-14T16:33:59.276Z,86.60
2018-06-14T16:36:34.352Z,87.40
2018-06-14T16:39:09.657Z,89.20
2018-06-14T16:41:44.673Z,88.30
2018-06-14T16:44:19.775Z,89.20
2018-06-14T16:49:29.504Z,89.60
2018-06-14T16:52:04.787Z,89.20
2018-06-14T16:54:39.856Z,90.30
2018-06-14T16:57:14.835Z,90.40
2018-06-14T16:59:49.928Z,93.50
2018-06-14T17:02:25.100Z,93.50
2018-06-14T17:05:00.189Z,92.70
2018-06-14T17:07:35.150Z,92.50
2018-06-14T17:10:10.288Z,91.30
2018-06-14T17:12:45.422Z,92.30
2018-06-14T17:15:20.854Z,92.30
2018-06-14T17:17:55.804Z,92.30
2018-06-14T17:20:30.986Z,92.50
2018-06-14T17:23:06.344Z,95.10
2018-06-14T17:25:41.556Z,94.40
2018-06-14T17:28:16.644Z,94.00
2018-06-14T17:30:51.720Z,94.40
2018-06-14T17:33:26.847Z,94.50
2018-06-14T17:36:02.380Z,94.20
2018-06-14T17:38:37.645Z,93.80
2018-06-14T17:41:12.680Z,93.20
2018-06-14T17:43:47.687Z,93.20
2018-06-14T17:46:22.841Z,94.20
2018-06-14T17:48:57.745Z,95.00
2018-06-14T17:51:33.107Z,94.70
2018-06-14T17:54:08.256Z,95.30
2018-06-14T17:56:47.110Z,95.10
2018-06-14T17:59:22.118Z,94.70
2018-06-14T18:01:57.404Z,93.80
2018-06-14T18:07:06.986Z,95.10
2018-06-14T18:09:42.089Z,95.80
2018-06-14T18:12:17.176Z,94.20
2018-06-14T18:14:52.233Z,95.40
2018-06-14T18:17:27.192Z,95.30
2018-06-14T18:20:02.372Z,96.10
2018-06-14T18:22:37.467Z,95.80
2018-06-14T18:25:12.750Z,95.50
2018-06-14T18:27:47.716Z,96.80
2018-06-14T18:30:22.712Z,96.00
2018-06-14T18:35:32.703Z,94.20
2018-06-14T18:38:07.810Z,94.00
2018-06-14T18:40:42.879Z,94.00
2018-06-14T18:43:17.856Z,94.60
2018-06-14T18:45:53.084Z,94.80
2018-06-14T18:48:28.025Z,94.60
2018-06-14T18:51:02.985Z,93.90
2018-06-14T18:53:37.992Z,94.20
2018-06-14T18:56:14.257Z,94.70
2018-06-14T18:58:49.427Z,95.00
2018-06-14T19:01:24.825Z,94.50
2018-06-14T19:03:59.837Z,94.70
2018-06-14T19:06:35.067Z,94.30
2018-06-14T19:09:10.806Z,94.30
2018-06-14T19:11:45.799Z,94.10
2018-06-14T19:14:21.233Z,95.30
2018-06-14T19:16:56.370Z,95.40
2018-06-14T19:19:31.550Z,94.90
2018-06-14T19:22:06.581Z,95.10
2018-06-14T19:24:41.697Z,95.50
2018-06-14T19:27:16.855Z,95.90
2018-06-14T19:29:52.080Z,95.80
2018-06-14T19:32:27.107Z,95.90
2018-06-14T19:35:02.146Z,92.90
2018-06-14T19:37:37.115Z,89.20
2018-06-14T19:40:12.239Z,85.40
2018-06-14T19:42:47.364Z,82.40
2018-06-14T19:45:22.519Z,80.70
2018-06-14T19:47:57.497Z,79.20
2018-06-14T19:50:32.647Z,78.00
2018-06-14T19:53:07.751Z,77.00
2018-06-14T19:55:42.741Z,76.00
2018-06-14T19:58:17.764Z,75.10
2018-06-14T20:00:52.740Z,74.60
2018-06-14T20:03:27.743Z,73.70
2018-06-14T20:06:02.997Z,73.10
2018-06-14T20:08:38.097Z,72.50
2018-06-14T20:11:13.108Z,72.00
2018-06-14T20:13:48.220Z,71.50
2018-06-14T20:16:24.023Z,71.10
2018-06-14T20:18:59.012Z,70.60
2018-06-14T20:21:34.228Z,70.30
2018-06-14T20:24:09.272Z,70.20
2018-06-14T20:26:44.417Z,70.10
2018-06-14T20:29:19.583Z,69.80
2018-06-14T20:31:54.660Z,69.30
2018-06-14T20:34:29.821Z,69.30
2018-06-14T20:37:04.865Z,68.90
2018-06-14T20:39:39.868Z,68.90
2018-06-14T20:42:15.059Z,68.50
2018-06-14T20:44:50.276Z,68.10
2018-06-14T20:47:25.414Z,67.90
2018-06-14T20:50:00.465Z,67.70
2018-06-14T20:52:35.454Z,67.40
2018-06-14T20:57:45.285Z,67.00
2018-06-14T21:00:20.422Z,66.90
2018-06-14T21:02:55.694Z,66.70
2018-06-14T21:05:30.794Z,66.60
2018-06-14T21:08:05.981Z,66.50
2018-06-14T21:10:41.186Z,66.30
2018-06-14T21:13:16.317Z,66.20
2018-06-14T21:15:51.410Z,66.10
2018-06-14T21:18:26.518Z,66.10
2018-06-14T21:21:01.706Z,65.90
2018-06-14T21:23:36.747Z,65.80
2018-06-14T21:26:11.719Z,65.70
2018-06-14T21:28:46.684Z,65.70
2018-06-14T21:31:21.796Z,65.60
2018-06-14T21:33:56.956Z,65.60
2018-06-14T21:36:32.132Z,65.40
2018-06-14T21:39:07.864Z,65.40
2018-06-14T21:41:43.071Z,65.40
2018-06-14T21:44:18.220Z,65.40
2018-06-14T21:46:53.227Z,65.60
2018-06-14T21:49:28.233Z,65.40
2018-06-14T21:52:03.288Z,65.30
2018-06-14T21:54:38.368Z,65.20
2018-06-14T21:57:13.547Z,65.10
2018-06-14T21:59:48.537Z,65.00
2018-06-14T22:02:23.731Z,65.10
2018-06-14T22:04:58.921Z,65.00
2018-06-14T22:07:34.022Z,65.00
2018-06-14T22:10:09.179Z,65.60
2018-06-14T22:12:44.271Z,65.50
2018-06-14T22:15:19.240Z,65.40
2018-06-14T22:17:54.195Z,65.40
2018-06-14T22:20:29.319Z,65.40
2018-06-14T22:23:04.344Z,65.30
2018-06-14T22:25:39.365Z,65.20
2018-06-14T22:28:14.508Z,65.30
2018-06-14T22:30:49.640Z,65.20
2018-06-14T22:33:35.965Z,65.20
2018-06-14T22:36:10.973Z,65.10
2018-06-14T22:38:46.128Z,65.10
2018-06-14T22:41:21.099Z,65.10
2018-06-14T22:43:56.114Z,65.00
2018-06-14T22:46:31.165Z,64.90
2018-06-14T22:49:06.326Z,64.80
2018-06-14T22:53:48.062Z,64.80
2018-06-14T22:56:23.149Z,64.70
2018-06-14T22:58:58.108Z,65.00
2018-06-14T23:01:41.613Z,64.80
2018-06-14T23:04:18.021Z,65.30
2018-06-14T23:06:53.251Z,65.10
2018-06-14T23:10:38.335Z,64.90
2018-06-14T23:13:17.581Z,64.70
2018-06-14T23:15:52.654Z,64.50
2018-06-14T23:18:27.761Z,64.40
2018-06-14T23:21:02.850Z,64.40
2018-06-14T23:23:37.998Z,64.20
2018-06-14T23:26:13.012Z,64.20
2018-06-14T23:28:48.111Z,64.20
2018-06-14T23:31:23.082Z,64.00
2018-06-14T23:33:58.261Z,64.00
2018-06-14T23:36:33.333Z,64.00
2018-06-14T23:39:08.612Z,64.00
2018-06-14T23:41:43.698Z,64.00
2018-06-14T23:44:18.895Z,64.00
2018-06-14T23:46:53.923Z,63.90
2018-06-14T23:49:28.933Z,63.90
2018-06-14T23:52:03.965Z,63.80
2018-06-14T23:54:39.088Z,63.90
2018-06-14T23:57:14.188Z,63.80
2018-06-14T23:59:49.644Z,63.70
